sensor_id;sensor_type;location;lat;lon;timestamp;pressure;altitude;pressure_sealevel;temperature;humidity
54918;BME280;40818;50.562;7.454;2023-07-16T00:00:22;97288.09;;;19.19;93.68
54918;BME280;40818;50.562;7.454;2023-07-16T00:10:28;97299.94;;;19.06;93.55
54918;BME280;40818;50.562;7.454;2023-07-16T00:20:34;97299.59;;;18.85;92.95
54918;BME280;40818;50.562;7.454;2023-07-16T00:30:38;97300.22;;;18.70;93.09
54918;BME280;40818;50.562;7.454;2023-07-16T00:40:45;97307.09;;;18.55;93.69
54918;BME280;40818;50.562;7.454;2023-07-16T00:50:50;97304.44;;;18.38;94.47
54918;BME280;40818;50.562;7.454;2023-07-16T01:00:58;97312.28;;;18.22;96.30
54918;BME280;40818;50.562;7.454;2023-07-16T01:11:03;97318.31;;;18.14;95.91
54918;BME280;40818;50.562;7.454;2023-07-16T01:21:10;97328.28;;;18.02;96.72
54918;BME280;40818;50.562;7.454;2023-07-16T01:31:17;97332.16;;;17.90;97.18
54918;BME280;40818;50.562;7.454;2023-07-16T01:41:21;97342.50;;;17.65;100.00
54918;BME280;40818;50.562;7.454;2023-07-16T01:51:28;97347.25;;;17.44;100.00
54918;BME280;40818;50.562;7.454;2023-07-16T02:01:31;97360.56;;;17.24;100.00
54918;BME280;40818;50.562;7.454;2023-07-16T02:11:37;97356.44;;;17.03;100.00
54918;BME280;40818;50.562;7.454;2023-07-16T02:21:40;97363.88;;;16.90;100.00
54918;BME280;40818;50.562;7.454;2023-07-16T02:31:46;97375.59;;;16.68;100.00
54918;BME280;40818;50.562;7.454;2023-07-16T02:41:50;97403.25;;;16.52;100.00
54918;BME280;40818;50.562;7.454;2023-07-16T02:51:56;97419.84;;;16.43;100.00
54918;BME280;40818;50.562;7.454;2023-07-16T03:01:59;97427.59;;;16.35;100.00
54918;BME280;40818;50.562;7.454;2023-07-16T03:12:07;97441.28;;;16.29;100.00
54918;BME280;40818;50.562;7.454;2023-07-16T03:22:11;97456.47;;;16.15;100.00
54918;BME280;40818;50.562;7.454;2023-07-16T03:32:17;97460.50;;;16.10;100.00
54918;BME280;40818;50.562;7.454;2023-07-16T03:42:21;97466.81;;;16.07;100.00
54918;BME280;40818;50.562;7.454;2023-07-16T03:52:27;97468.50;;;15.98;100.00
54918;BME280;40818;50.562;7.454;2023-07-16T04:02:31;97472.94;;;15.88;100.00
54918;BME280;40818;50.562;7.454;2023-07-16T04:12:37;97493.88;;;15.88;100.00
54918;BME280;40818;50.562;7.454;2023-07-16T04:22:40;97502.13;;;15.93;100.00
54918;BME280;40818;50.562;7.454;2023-07-16T04:32:46;97507.91;;;16.07;100.00
54918;BME280;40818;50.562;7.454;2023-07-16T04:42:50;97512.25;;;16.35;100.00
54918;BME280;40818;50.562;7.454;2023-07-16T04:52:56;97516.06;;;16.51;100.00
54918;BME280;40818;50.562;7.454;2023-07-16T05:02:59;97519.84;;;16.76;99.54
54918;BME280;40818;50.562;7.454;2023-07-16T05:13:05;97531.31;;;17.03;96.97
54918;BME280;40818;50.562;7.454;2023-07-16T05:23:09;97547.59;;;17.34;95.54
54918;BME280;40818;50.562;7.454;2023-07-16T05:33:15;97551.66;;;17.65;93.93
54918;BME280;40818;50.562;7.454;2023-07-16T05:43:19;97571.19;;;18.16;91.62
54918;BME280;40818;50.562;7.454;2023-07-16T05:53:25;97587.47;;;18.72;86.66
54918;BME280;40818;50.562;7.454;2023-07-16T06:03:28;97597.47;;;19.81;82.56
54918;BME280;40818;50.562;7.454;2023-07-16T06:13:34;97608.00;;;20.63;77.41
54918;BME280;40818;50.562;7.454;2023-07-16T06:23:38;97614.06;;;21.36;72.57
54918;BME280;40818;50.562;7.454;2023-07-16T06:33:44;97609.75;;;22.82;67.21
54918;BME280;40818;50.562;7.454;2023-07-16T06:43:49;97617.81;;;24.07;55.11
54918;BME280;40818;50.562;7.454;2023-07-16T06:53:55;97604.50;;;25.42;52.66
54918;BME280;40818;50.562;7.454;2023-07-16T07:03:59;97603.06;;;26.68;48.17
54918;BME280;40818;50.562;7.454;2023-07-16T07:14:05;97616.06;;;27.23;44.64
54918;BME280;40818;50.562;7.454;2023-07-16T07:24:08;97604.47;;;27.95;39.68
54918;BME280;40818;50.562;7.454;2023-07-16T07:34:15;97602.28;;;28.17;40.63
54918;BME280;40818;50.562;7.454;2023-07-16T07:44:18;97621.03;;;28.36;36.02
54918;BME280;40818;50.562;7.454;2023-07-16T07:54:24;97627.66;;;28.52;36.31
54918;BME280;40818;50.562;7.454;2023-07-16T08:04:28;97623.91;;;28.66;38.01
54918;BME280;40818;50.562;7.454;2023-07-16T08:14:35;97634.84;;;28.01;35.52
54918;BME280;40818;50.562;7.454;2023-07-16T08:24:38;97626.94;;;27.15;34.31
54918;BME280;40818;50.562;7.454;2023-07-16T08:34:44;97625.41;;;25.59;34.72
54918;BME280;40818;50.562;7.454;2023-07-16T08:44:49;97639.34;;;24.41;37.02
54918;BME280;40818;50.562;7.454;2023-07-16T08:54:55;97636.00;;;24.32;38.60
54918;BME280;40818;50.562;7.454;2023-07-16T09:04:59;97654.09;;;23.70;38.07
54918;BME280;40818;50.562;7.454;2023-07-16T09:15:07;97653.75;;;22.98;39.63
54918;BME280;40818;50.562;7.454;2023-07-16T09:25:11;97665.25;;;22.91;39.85
54918;BME280;40818;50.562;7.454;2023-07-16T09:35:17;97667.16;;;22.82;41.59
54918;BME280;40818;50.562;7.454;2023-07-16T09:45:20;97659.09;;;23.13;42.22
54918;BME280;40818;50.562;7.454;2023-07-16T09:55:27;97673.59;;;23.47;42.06
54918;BME280;40818;50.562;7.454;2023-07-16T10:05:36;97674.72;;;23.90;40.71
54918;BME280;40818;50.562;7.454;2023-07-16T10:15:53;97672.09;;;24.54;37.43
54918;BME280;40818;50.562;7.454;2023-07-16T10:25:58;97669.41;;;24.69;36.53
54918;BME280;40818;50.562;7.454;2023-07-16T10:36:08;97658.59;;;24.49;37.12
54918;BME280;40818;50.562;7.454;2023-07-16T10:46:12;97664.00;;;25.13;35.54
54918;BME280;40818;50.562;7.454;2023-07-16T10:56:19;97657.03;;;25.47;33.80
54918;BME280;40818;50.562;7.454;2023-07-16T11:06:23;97662.47;;;26.82;34.57
54918;BME280;40818;50.562;7.454;2023-07-16T11:16:33;97659.44;;;28.35;30.59
54918;BME280;40818;50.562;7.454;2023-07-16T11:26:36;97658.06;;;29.75;29.66
54918;BME280;40818;50.562;7.454;2023-07-16T11:36:42;97656.03;;;30.50;27.94
54918;BME280;40818;50.562;7.454;2023-07-16T11:46:46;97659.53;;;30.62;27.38
54918;BME280;40818;50.562;7.454;2023-07-16T11:56:52;97669.09;;;30.82;30.12
54918;BME280;40818;50.562;7.454;2023-07-16T12:06:56;97658.84;;;31.26;28.67
54918;BME280;40818;50.562;7.454;2023-07-16T12:17:02;97662.66;;;31.83;26.10
54918;BME280;40818;50.562;7.454;2023-07-16T12:27:06;97666.28;;;30.77;26.04
54918;BME280;40818;50.562;7.454;2023-07-16T12:37:12;97656.75;;;30.15;27.88
54918;BME280;40818;50.562;7.454;2023-07-16T12:47:17;97672.41;;;29.07;27.24
54918;BME280;40818;50.562;7.454;2023-07-16T12:57:23;97679.34;;;27.48;28.92
54918;BME280;40818;50.562;7.454;2023-07-16T13:07:26;97685.38;;;27.10;30.53
54918;BME280;40818;50.562;7.454;2023-07-16T13:17:32;97676.31;;;27.24;31.60
54918;BME280;40818;50.562;7.454;2023-07-16T13:27:37;97682.88;;;27.29;31.28
54918;BME280;40818;50.562;7.454;2023-07-16T13:37:43;97668.66;;;27.62;32.54
54918;BME280;40818;50.562;7.454;2023-07-16T13:47:47;97682.00;;;27.48;31.12
54918;BME280;40818;50.562;7.454;2023-07-16T13:57:54;97680.47;;;26.60;30.59
54918;BME280;40818;50.562;7.454;2023-07-16T14:07:58;97692.13;;;26.79;31.62
54918;BME280;40818;50.562;7.454;2023-07-16T14:18:04;97688.03;;;26.83;31.27
54918;BME280;40818;50.562;7.454;2023-07-16T14:28:08;97677.16;;;26.51;31.50
54918;BME280;40818;50.562;7.454;2023-07-16T14:38:14;97682.88;;;26.21;31.15
54918;BME280;40818;50.562;7.454;2023-07-16T14:48:17;97689.16;;;25.52;32.74
54918;BME280;40818;50.562;7.454;2023-07-16T14:58:25;97677.41;;;25.33;34.11
54918;BME280;40818;50.562;7.454;2023-07-16T15:08:29;97688.06;;;25.39;34.66
54918;BME280;40818;50.562;7.454;2023-07-16T15:18:36;97669.50;;;25.46;34.07
54918;BME280;40818;50.562;7.454;2023-07-16T15:28:39;97670.59;;;25.24;34.22
54918;BME280;40818;50.562;7.454;2023-07-16T15:38:46;97675.66;;;25.18;33.73
54918;BME280;40818;50.562;7.454;2023-07-16T15:48:50;97688.56;;;24.93;35.07
54918;BME280;40818;50.562;7.454;2023-07-16T15:58:56;97684.50;;;24.69;35.78
54918;BME280;40818;50.562;7.454;2023-07-16T16:08:59;97686.16;;;24.48;35.59
54918;BME280;40818;50.562;7.454;2023-07-16T16:19:05;97663.88;;;24.43;36.17
54918;BME280;40818;50.562;7.454;2023-07-16T16:29:09;97659.53;;;24.63;35.57
54918;BME280;40818;50.562;7.454;2023-07-16T16:39:15;97666.91;;;24.61;34.94
54918;BME280;40818;50.562;7.454;2023-07-16T16:49:19;97656.13;;;24.05;35.06
54918;BME280;40818;50.562;7.454;2023-07-16T16:59:25;97666.34;;;23.71;35.64
54918;BME280;40818;50.562;7.454;2023-07-16T17:09:33;97667.03;;;23.43;36.41
54918;BME280;40818;50.562;7.454;2023-07-16T17:19:41;97661.38;;;23.16;37.06
54918;BME280;40818;50.562;7.454;2023-07-16T17:29:45;97665.97;;;22.84;37.27
54918;BME280;40818;50.562;7.454;2023-07-16T17:39:51;97681.44;;;22.58;37.54
54918;BME280;40818;50.562;7.454;2023-07-16T17:49:55;97677.28;;;22.32;37.74
54918;BME280;40818;50.562;7.454;2023-07-16T18:00:01;97704.00;;;22.14;37.99
54918;BME280;40818;50.562;7.454;2023-07-16T18:10:10;97697.38;;;21.95;39.19
54918;BME280;40818;50.562;7.454;2023-07-16T18:20:16;97701.81;;;21.63;39.62
54918;BME280;40818;50.562;7.454;2023-07-16T18:30:20;97707.53;;;21.19;41.06
54918;BME280;40818;50.562;7.454;2023-07-16T18:40:26;97706.88;;;21.00;41.25
54918;BME280;40818;50.562;7.454;2023-07-16T18:50:29;97713.66;;;20.86;41.22
54918;BME280;40818;50.562;7.454;2023-07-16T19:00:35;97712.22;;;20.75;42.11
54918;BME280;40818;50.562;7.454;2023-07-16T19:10:39;97718.94;;;20.53;42.64
54918;BME280;40818;50.562;7.454;2023-07-16T19:20:45;97722.88;;;20.33;43.15
54918;BME280;40818;50.562;7.454;2023-07-16T19:30:49;97734.69;;;20.20;43.35
54918;BME280;40818;50.562;7.454;2023-07-16T19:40:55;97751.59;;;20.01;43.62
54918;BME280;40818;50.562;7.454;2023-07-16T19:50:58;97762.19;;;19.75;44.31
54918;BME280;40818;50.562;7.454;2023-07-16T20:01:07;97760.25;;;19.51;45.23
54918;BME280;40818;50.562;7.454;2023-07-16T20:11:10;97769.28;;;19.22;44.77
54918;BME280;40818;50.562;7.454;2023-07-16T20:21:16;97769.03;;;19.07;45.37
54918;BME280;40818;50.562;7.454;2023-07-16T20:31:21;97763.34;;;18.93;45.14
54918;BME280;40818;50.562;7.454;2023-07-16T20:41:27;97772.88;;;18.76;45.16
54918;BME280;40818;50.562;7.454;2023-07-16T20:51:30;97768.13;;;18.62;45.24
54918;BME280;40818;50.562;7.454;2023-07-16T21:01:36;97769.19;;;18.51;46.11
54918;BME280;40818;50.562;7.454;2023-07-16T21:11:40;97768.59;;;18.39;46.50
54918;BME280;40818;50.562;7.454;2023-07-16T21:21:46;97764.91;;;18.32;46.62
54918;BME280;40818;50.562;7.454;2023-07-16T21:31:49;97770.31;;;18.31;46.60
54918;BME280;40818;50.562;7.454;2023-07-16T21:41:55;97774.06;;;18.28;46.72
54918;BME280;40818;50.562;7.454;2023-07-16T21:51:58;97770.22;;;18.22;46.69
54918;BME280;40818;50.562;7.454;2023-07-16T22:02:06;97769.75;;;18.09;47.42
54918;BME280;40818;50.562;7.454;2023-07-16T22:12:10;97768.22;;;17.79;48.08
54918;BME280;40818;50.562;7.454;2023-07-16T22:22:16;97767.41;;;17.68;48.49
54918;BME280;40818;50.562;7.454;2023-07-16T22:32:19;97776.06;;;17.51;49.57
54918;BME280;40818;50.562;7.454;2023-07-16T22:42:25;97776.06;;;17.41;50.37
54918;BME280;40818;50.562;7.454;2023-07-16T22:52:29;97777.22;;;17.29;50.82
54918;BME280;40818;50.562;7.454;2023-07-16T23:02:35;97769.13;;;17.12;50.71
54918;BME280;40818;50.562;7.454;2023-07-16T23:12:38;97766.81;;;16.99;52.01
54918;BME280;40818;50.562;7.454;2023-07-16T23:22:44;97770.09;;;16.82;52.79
54918;BME280;40818;50.562;7.454;2023-07-16T23:32:48;97761.78;;;16.77;52.79
54918;BME280;40818;50.562;7.454;2023-07-16T23:42:54;97765.28;;;16.58;54.16
54918;BME280;40818;50.562;7.454;2023-07-16T23:52:57;97771.47;;;16.47;53.90
